sensor_id;sensor_type;location;lat;lon;timestamp;P1;durP1;ratioP1;P2;durP2;ratioP2
37517;SDS011;23366;52.498;13.446;2022-12-07T00:01:34;15.88;;;8.18;;
37517;SDS011;23366;52.498;13.446;2022-12-07T00:04:01;9.32;;;6.03;;
37517;SDS011;23366;52.498;13.446;2022-12-07T00:06:34;13.82;;;6.65;;
37517;SDS011;23366;52.498;13.446;2022-12-07T00:09:03;12.45;;;6.80;;
37517;SDS011;23366;52.498;13.446;2022-12-07T00:11:30;10.25;;;5.70;;
37517;SDS011;23366;52.498;13.446;2022-12-07T00:13:57;10.18;;;5.85;;
37517;SDS011;23366;52.498;13.446;2022-12-07T00:16:25;15.45;;;7.13;;
37517;SDS011;23366;52.498;13.446;2022-12-07T00:18:53;9.48;;;5.63;;
37517;SDS011;23366;52.498;13.446;2022-12-07T00:21:20;12.05;;;5.93;;
37517;SDS011;23366;52.498;13.446;2022-12-07T00:23:48;14.63;;;6.53;;
37517;SDS011;23366;52.498;13.446;2022-12-07T00:26:24;16.30;;;6.53;;
37517;SDS011;23366;52.498;13.446;2022-12-07T00:28:53;12.48;;;5.95;;
37517;SDS011;23366;52.498;13.446;2022-12-07T00:31:33;14.77;;;6.85;;
37517;SDS011;23366;52.498;13.446;2022-12-07T00:34:05;13.50;;;6.68;;
37517;SDS011;23366;52.498;13.446;2022-12-07T00:36:33;10.88;;;5.65;;
37517;SDS011;23366;52.498;13.446;2022-12-07T00:39:00;12.50;;;4.95;;
37517;SDS011;23366;52.498;13.446;2022-12-07T00:41:28;13.05;;;5.85;;
37517;SDS011;23366;52.498;13.446;2022-12-07T00:44:06;15.65;;;5.45;;
37517;SDS011;23366;52.498;13.446;2022-12-07T00:46:35;15.77;;;7.65;;
37517;SDS011;23366;52.498;13.446;2022-12-07T00:51:33;9.68;;;4.97;;
37517;SDS011;23366;52.498;13.446;2022-12-07T00:53:59;8.57;;;5.00;;
37517;SDS011;23366;52.498;13.446;2022-12-07T00:56:25;10.32;;;5.65;;
37517;SDS011;23366;52.498;13.446;2022-12-07T00:59:12;10.80;;;5.78;;
37517;SDS011;23366;52.498;13.446;2022-12-07T01:01:40;8.50;;;5.47;;
37517;SDS011;23366;52.498;13.446;2022-12-07T01:04:10;13.32;;;6.38;;
37517;SDS011;23366;52.498;13.446;2022-12-07T01:06:37;10.55;;;4.57;;
37517;SDS011;23366;52.498;13.446;2022-12-07T01:09:03;10.18;;;6.45;;
37517;SDS011;23366;52.498;13.446;2022-12-07T01:11:31;11.35;;;5.90;;
37517;SDS011;23366;52.498;13.446;2022-12-07T01:13:57;9.10;;;5.22;;
37517;SDS011;23366;52.498;13.446;2022-12-07T01:16:24;7.95;;;4.72;;
37517;SDS011;23366;52.498;13.446;2022-12-07T01:18:53;12.35;;;6.10;;
37517;SDS011;23366;52.498;13.446;2022-12-07T01:21:21;11.70;;;5.45;;
37517;SDS011;23366;52.498;13.446;2022-12-07T01:23:49;10.57;;;5.60;;
37517;SDS011;23366;52.498;13.446;2022-12-07T01:26:18;10.93;;;5.78;;
37517;SDS011;23366;52.498;13.446;2022-12-07T01:28:46;7.40;;;5.07;;
37517;SDS011;23366;52.498;13.446;2022-12-07T01:31:28;6.32;;;3.88;;
37517;SDS011;23366;52.498;13.446;2022-12-07T01:34:09;10.23;;;4.80;;
37517;SDS011;23366;52.498;13.446;2022-12-07T01:36:36;8.27;;;4.68;;
37517;SDS011;23366;52.498;13.446;2022-12-07T01:39:04;7.65;;;3.92;;
37517;SDS011;23366;52.498;13.446;2022-12-07T01:41:36;9.13;;;4.50;;
37517;SDS011;23366;52.498;13.446;2022-12-07T01:46:54;9.25;;;4.78;;
37517;SDS011;23366;52.498;13.446;2022-12-07T01:50:19;9.93;;;5.38;;
37517;SDS011;23366;52.498;13.446;2022-12-07T01:53:08;7.93;;;3.92;;
37517;SDS011;23366;52.498;13.446;2022-12-07T01:55:39;5.80;;;3.83;;
37517;SDS011;23366;52.498;13.446;2022-12-07T01:58:07;9.23;;;4.20;;
37517;SDS011;23366;52.498;13.446;2022-12-07T02:00:34;5.50;;;3.67;;
37517;SDS011;23366;52.498;13.446;2022-12-07T02:03:14;6.55;;;3.63;;
37517;SDS011;23366;52.498;13.446;2022-12-07T02:05:55;5.30;;;3.17;;
37517;SDS011;23366;52.498;13.446;2022-12-07T02:08:24;7.70;;;3.83;;
37517;SDS011;23366;52.498;13.446;2022-12-07T02:10:50;6.88;;;3.60;;
37517;SDS011;23366;52.498;13.446;2022-12-07T02:16:20;9.05;;;3.80;;
37517;SDS011;23366;52.498;13.446;2022-12-07T02:22:01;6.65;;;3.40;;
37517;SDS011;23366;52.498;13.446;2022-12-07T02:24:57;5.45;;;3.30;;
37517;SDS011;23366;52.498;13.446;2022-12-07T02:27:52;5.32;;;3.65;;
37517;SDS011;23366;52.498;13.446;2022-12-07T02:30:24;6.55;;;4.13;;
37517;SDS011;23366;52.498;13.446;2022-12-07T02:32:57;7.00;;;3.05;;
37517;SDS011;23366;52.498;13.446;2022-12-07T02:35:51;5.28;;;3.58;;
37517;SDS011;23366;52.498;13.446;2022-12-07T02:38:55;5.68;;;3.10;;
37517;SDS011;23366;52.498;13.446;2022-12-07T02:41:27;4.97;;;3.22;;
37517;SDS011;23366;52.498;13.446;2022-12-07T02:43:59;7.15;;;3.45;;
37517;SDS011;23366;52.498;13.446;2022-12-07T02:46:29;7.90;;;3.33;;
37517;SDS011;23366;52.498;13.446;2022-12-07T02:48:58;5.25;;;3.53;;
37517;SDS011;23366;52.498;13.446;2022-12-07T02:51:24;5.97;;;3.47;;
37517;SDS011;23366;52.498;13.446;2022-12-07T02:53:50;5.25;;;3.03;;
37517;SDS011;23366;52.498;13.446;2022-12-07T02:56:38;6.68;;;3.60;;
37517;SDS011;23366;52.498;13.446;2022-12-07T03:13:39;8.10;;;4.65;;
37517;SDS011;23366;52.498;13.446;2022-12-07T03:16:17;4.82;;;3.38;;
37517;SDS011;23366;52.498;13.446;2022-12-07T03:19:06;6.93;;;3.90;;
37517;SDS011;23366;52.498;13.446;2022-12-07T03:21:37;9.18;;;4.30;;
37517;SDS011;23366;52.498;13.446;2022-12-07T03:24:08;6.75;;;4.50;;
37517;SDS011;23366;52.498;13.446;2022-12-07T03:26:41;7.15;;;3.67;;
37517;SDS011;23366;52.498;13.446;2022-12-07T03:29:16;6.00;;;3.65;;
37517;SDS011;23366;52.498;13.446;2022-12-07T03:31:54;5.13;;;3.35;;
37517;SDS011;23366;52.498;13.446;2022-12-07T03:37:33;7.35;;;4.10;;
37517;SDS011;23366;52.498;13.446;2022-12-07T03:42:50;8.35;;;4.22;;
37517;SDS011;23366;52.498;13.446;2022-12-07T03:45:18;7.90;;;3.78;;
37517;SDS011;23366;52.498;13.446;2022-12-07T03:47:51;7.10;;;3.92;;
37517;SDS011;23366;52.498;13.446;2022-12-07T03:50:29;6.00;;;3.92;;
37517;SDS011;23366;52.498;13.446;2022-12-07T03:53:05;5.97;;;3.42;;
37517;SDS011;23366;52.498;13.446;2022-12-07T03:55:37;5.40;;;3.63;;
37517;SDS011;23366;52.498;13.446;2022-12-07T03:58:08;8.37;;;5.03;;
37517;SDS011;23366;52.498;13.446;2022-12-07T04:00:36;8.63;;;4.18;;
37517;SDS011;23366;52.498;13.446;2022-12-07T04:03:03;8.90;;;4.50;;
37517;SDS011;23366;52.498;13.446;2022-12-07T04:05:28;9.82;;;5.32;;
37517;SDS011;23366;52.498;13.446;2022-12-07T04:07:54;11.10;;;4.30;;
37517;SDS011;23366;52.498;13.446;2022-12-07T04:10:19;7.10;;;4.10;;
37517;SDS011;23366;52.498;13.446;2022-12-07T04:12:45;8.00;;;4.60;;
37517;SDS011;23366;52.498;13.446;2022-12-07T04:15:11;9.10;;;5.30;;
37517;SDS011;23366;52.498;13.446;2022-12-07T04:17:37;14.75;;;5.82;;
37517;SDS011;23366;52.498;13.446;2022-12-07T04:20:03;9.20;;;5.63;;
37517;SDS011;23366;52.498;13.446;2022-12-07T04:22:29;11.57;;;4.65;;
37517;SDS011;23366;52.498;13.446;2022-12-07T04:24:54;10.82;;;5.22;;
37517;SDS011;23366;52.498;13.446;2022-12-07T04:27:20;9.07;;;4.47;;
37517;SDS011;23366;52.498;13.446;2022-12-07T04:29:45;7.65;;;4.22;;
37517;SDS011;23366;52.498;13.446;2022-12-07T04:32:11;8.05;;;4.75;;
37517;SDS011;23366;52.498;13.446;2022-12-07T04:34:36;10.57;;;4.82;;
37517;SDS011;23366;52.498;13.446;2022-12-07T04:37:08;8.93;;;5.15;;
37517;SDS011;23366;52.498;13.446;2022-12-07T04:39:34;14.60;;;6.18;;
37517;SDS011;23366;52.498;13.446;2022-12-07T04:42:00;12.73;;;6.05;;
37517;SDS011;23366;52.498;13.446;2022-12-07T04:44:26;11.52;;;6.88;;
37517;SDS011;23366;52.498;13.446;2022-12-07T04:46:52;12.75;;;7.72;;
37517;SDS011;23366;52.498;13.446;2022-12-07T04:49:18;12.68;;;7.55;;
37517;SDS011;23366;52.498;13.446;2022-12-07T04:51:45;13.82;;;6.90;;
37517;SDS011;23366;52.498;13.446;2022-12-07T04:54:11;14.63;;;7.28;;
37517;SDS011;23366;52.498;13.446;2022-12-07T04:56:37;14.45;;;6.88;;
37517;SDS011;23366;52.498;13.446;2022-12-07T04:59:03;17.42;;;8.93;;
37517;SDS011;23366;52.498;13.446;2022-12-07T05:01:29;15.05;;;7.63;;
37517;SDS011;23366;52.498;13.446;2022-12-07T05:03:55;19.98;;;8.35;;
37517;SDS011;23366;52.498;13.446;2022-12-07T05:06:21;17.80;;;8.10;;
37517;SDS011;23366;52.498;13.446;2022-12-07T05:08:47;22.45;;;9.88;;
37517;SDS011;23366;52.498;13.446;2022-12-07T05:11:12;20.17;;;8.50;;
37517;SDS011;23366;52.498;13.446;2022-12-07T05:14:02;18.85;;;10.05;;
37517;SDS011;23366;52.498;13.446;2022-12-07T05:16:29;18.48;;;9.57;;
37517;SDS011;23366;52.498;13.446;2022-12-07T05:18:55;26.33;;;10.27;;
37517;SDS011;23366;52.498;13.446;2022-12-07T05:21:21;20.73;;;10.20;;
37517;SDS011;23366;52.498;13.446;2022-12-07T05:23:46;22.92;;;11.38;;
37517;SDS011;23366;52.498;13.446;2022-12-07T05:26:12;20.92;;;10.70;;
37517;SDS011;23366;52.498;13.446;2022-12-07T05:28:37;19.48;;;9.68;;
37517;SDS011;23366;52.498;13.446;2022-12-07T05:31:03;20.48;;;10.70;;
37517;SDS011;23366;52.498;13.446;2022-12-07T05:33:28;18.50;;;9.20;;
37517;SDS011;23366;52.498;13.446;2022-12-07T05:35:54;23.83;;;11.45;;
37517;SDS011;23366;52.498;13.446;2022-12-07T05:38:20;26.33;;;11.63;;
37517;SDS011;23366;52.498;13.446;2022-12-07T05:40:45;18.20;;;9.07;;
37517;SDS011;23366;52.498;13.446;2022-12-07T05:43:11;20.40;;;11.63;;
37517;SDS011;23366;52.498;13.446;2022-12-07T05:45:36;22.35;;;10.07;;
37517;SDS011;23366;52.498;13.446;2022-12-07T05:48:02;21.08;;;10.55;;
37517;SDS011;23366;52.498;13.446;2022-12-07T05:50:27;22.80;;;10.88;;
37517;SDS011;23366;52.498;13.446;2022-12-07T05:52:53;19.77;;;9.18;;
37517;SDS011;23366;52.498;13.446;2022-12-07T05:55:19;22.45;;;12.10;;
37517;SDS011;23366;52.498;13.446;2022-12-07T05:57:44;19.85;;;9.45;;
37517;SDS011;23366;52.498;13.446;2022-12-07T06:00:30;18.42;;;9.20;;
37517;SDS011;23366;52.498;13.446;2022-12-07T06:02:56;26.98;;;10.40;;
37517;SDS011;23366;52.498;13.446;2022-12-07T06:05:21;28.02;;;11.27;;
37517;SDS011;23366;52.498;13.446;2022-12-07T06:07:47;28.00;;;10.48;;
37517;SDS011;23366;52.498;13.446;2022-12-07T06:10:13;25.25;;;10.50;;
37517;SDS011;23366;52.498;13.446;2022-12-07T06:12:38;25.27;;;11.13;;
37517;SDS011;23366;52.498;13.446;2022-12-07T06:15:07;22.00;;;9.88;;
37517;SDS011;23366;52.498;13.446;2022-12-07T06:17:33;19.17;;;9.68;;
37517;SDS011;23366;52.498;13.446;2022-12-07T06:19:59;28.55;;;11.32;;
37517;SDS011;23366;52.498;13.446;2022-12-07T06:22:24;24.17;;;10.75;;
37517;SDS011;23366;52.498;13.446;2022-12-07T06:24:50;29.88;;;10.13;;
37517;SDS011;23366;52.498;13.446;2022-12-07T06:27:16;24.05;;;10.10;;
37517;SDS011;23366;52.498;13.446;2022-12-07T06:29:41;25.65;;;12.95;;
37517;SDS011;23366;52.498;13.446;2022-12-07T06:32:07;18.27;;;9.85;;
37517;SDS011;23366;52.498;13.446;2022-12-07T06:34:32;27.17;;;10.43;;
37517;SDS011;23366;52.498;13.446;2022-12-07T06:36:58;31.63;;;13.40;;
37517;SDS011;23366;52.498;13.446;2022-12-07T06:39:25;24.27;;;10.98;;
37517;SDS011;23366;52.498;13.446;2022-12-07T06:42:04;25.42;;;11.20;;
37517;SDS011;23366;52.498;13.446;2022-12-07T06:44:30;29.27;;;11.70;;
37517;SDS011;23366;52.498;13.446;2022-12-07T06:46:56;27.20;;;10.65;;
37517;SDS011;23366;52.498;13.446;2022-12-07T06:49:22;29.98;;;10.90;;
37517;SDS011;23366;52.498;13.446;2022-12-07T06:51:47;24.23;;;12.20;;
37517;SDS011;23366;52.498;13.446;2022-12-07T06:54:13;20.63;;;10.40;;
37517;SDS011;23366;52.498;13.446;2022-12-07T06:56:39;23.23;;;12.52;;
37517;SDS011;23366;52.498;13.446;2022-12-07T06:59:05;19.27;;;9.63;;
37517;SDS011;23366;52.498;13.446;2022-12-07T07:01:32;29.20;;;12.30;;
37517;SDS011;23366;52.498;13.446;2022-12-07T07:03:59;27.70;;;11.50;;
37517;SDS011;23366;52.498;13.446;2022-12-07T07:06:24;24.10;;;11.02;;
37517;SDS011;23366;52.498;13.446;2022-12-07T07:08:50;23.42;;;10.80;;
37517;SDS011;23366;52.498;13.446;2022-12-07T07:11:15;20.75;;;10.95;;
37517;SDS011;23366;52.498;13.446;2022-12-07T07:13:42;23.20;;;11.23;;
37517;SDS011;23366;52.498;13.446;2022-12-07T07:16:07;25.75;;;11.77;;
37517;SDS011;23366;52.498;13.446;2022-12-07T07:18:33;26.50;;;11.68;;
37517;SDS011;23366;52.498;13.446;2022-12-07T07:21:00;30.10;;;12.48;;
37517;SDS011;23366;52.498;13.446;2022-12-07T07:23:26;25.38;;;12.70;;
37517;SDS011;23366;52.498;13.446;2022-12-07T07:25:51;26.23;;;12.45;;
37517;SDS011;23366;52.498;13.446;2022-12-07T07:28:17;29.27;;;12.98;;
37517;SDS011;23366;52.498;13.446;2022-12-07T07:30:43;20.50;;;11.00;;
37517;SDS011;23366;52.498;13.446;2022-12-07T07:33:09;23.02;;;10.95;;
37517;SDS011;23366;52.498;13.446;2022-12-07T07:35:35;26.30;;;11.45;;
37517;SDS011;23366;52.498;13.446;2022-12-07T07:38:01;22.25;;;10.82;;
37517;SDS011;23366;52.498;13.446;2022-12-07T07:40:28;19.30;;;9.75;;
37517;SDS011;23366;52.498;13.446;2022-12-07T07:42:54;22.23;;;10.75;;
37517;SDS011;23366;52.498;13.446;2022-12-07T07:45:21;19.85;;;10.27;;
37517;SDS011;23366;52.498;13.446;2022-12-07T07:47:48;21.10;;;9.93;;
37517;SDS011;23366;52.498;13.446;2022-12-07T07:50:13;24.67;;;11.02;;
37517;SDS011;23366;52.498;13.446;2022-12-07T07:52:39;18.90;;;9.20;;
37517;SDS011;23366;52.498;13.446;2022-12-07T07:55:08;22.45;;;10.50;;
37517;SDS011;23366;52.498;13.446;2022-12-07T07:57:35;25.13;;;9.07;;
37517;SDS011;23366;52.498;13.446;2022-12-07T08:00:01;20.05;;;10.52;;
37517;SDS011;23366;52.498;13.446;2022-12-07T08:02:31;21.25;;;9.07;;
37517;SDS011;23366;52.498;13.446;2022-12-07T08:04:57;25.50;;;9.98;;
37517;SDS011;23366;52.498;13.446;2022-12-07T08:07:24;19.52;;;8.85;;
37517;SDS011;23366;52.498;13.446;2022-12-07T08:09:51;15.25;;;8.07;;
37517;SDS011;23366;52.498;13.446;2022-12-07T08:12:17;16.77;;;7.95;;
37517;SDS011;23366;52.498;13.446;2022-12-07T08:14:42;15.55;;;7.22;;
37517;SDS011;23366;52.498;13.446;2022-12-07T08:17:08;15.75;;;8.23;;
37517;SDS011;23366;52.498;13.446;2022-12-07T08:19:33;16.65;;;8.55;;
37517;SDS011;23366;52.498;13.446;2022-12-07T08:21:59;10.55;;;6.30;;
37517;SDS011;23366;52.498;13.446;2022-12-07T08:24:25;9.20;;;5.43;;
37517;SDS011;23366;52.498;13.446;2022-12-07T08:26:50;9.73;;;6.05;;
37517;SDS011;23366;52.498;13.446;2022-12-07T08:29:16;12.18;;;6.55;;
37517;SDS011;23366;52.498;13.446;2022-12-07T08:31:42;20.65;;;7.32;;
37517;SDS011;23366;52.498;13.446;2022-12-07T08:34:09;13.65;;;6.38;;
37517;SDS011;23366;52.498;13.446;2022-12-07T08:36:36;13.50;;;6.00;;
37517;SDS011;23366;52.498;13.446;2022-12-07T08:39:02;12.90;;;6.28;;
37517;SDS011;23366;52.498;13.446;2022-12-07T08:41:28;12.25;;;6.70;;
37517;SDS011;23366;52.498;13.446;2022-12-07T08:43:56;9.57;;;5.90;;
37517;SDS011;23366;52.498;13.446;2022-12-07T08:46:25;13.93;;;5.15;;
37517;SDS011;23366;52.498;13.446;2022-12-07T08:49:01;11.18;;;5.57;;
37517;SDS011;23366;52.498;13.446;2022-12-07T08:51:41;9.52;;;4.35;;
37517;SDS011;23366;52.498;13.446;2022-12-07T08:54:07;8.52;;;4.90;;
37517;SDS011;23366;52.498;13.446;2022-12-07T08:56:36;13.05;;;5.35;;
37517;SDS011;23366;52.498;13.446;2022-12-07T08:59:01;12.63;;;4.75;;
37517;SDS011;23366;52.498;13.446;2022-12-07T09:01:28;7.72;;;4.07;;
37517;SDS011;23366;52.498;13.446;2022-12-07T09:03:54;8.07;;;4.85;;
37517;SDS011;23366;52.498;13.446;2022-12-07T09:06:22;5.18;;;2.83;;
37517;SDS011;23366;52.498;13.446;2022-12-07T09:08:49;9.82;;;3.33;;
37517;SDS011;23366;52.498;13.446;2022-12-07T09:11:17;4.88;;;2.67;;
37517;SDS011;23366;52.498;13.446;2022-12-07T09:13:43;3.72;;;2.75;;
37517;SDS011;23366;52.498;13.446;2022-12-07T09:16:08;3.03;;;2.35;;
37517;SDS011;23366;52.498;13.446;2022-12-07T09:18:34;6.32;;;2.85;;
37517;SDS011;23366;52.498;13.446;2022-12-07T09:20:59;3.97;;;2.67;;
37517;SDS011;23366;52.498;13.446;2022-12-07T09:23:25;3.20;;;2.80;;
37517;SDS011;23366;52.498;13.446;2022-12-07T09:25:50;3.72;;;2.22;;
37517;SDS011;23366;52.498;13.446;2022-12-07T09:28:16;3.40;;;2.45;;
37517;SDS011;23366;52.498;13.446;2022-12-07T09:30:45;3.72;;;2.28;;
37517;SDS011;23366;52.498;13.446;2022-12-07T09:33:12;5.38;;;3.47;;
37517;SDS011;23366;52.498;13.446;2022-12-07T09:35:38;6.43;;;3.15;;
37517;SDS011;23366;52.498;13.446;2022-12-07T09:38:08;3.27;;;2.40;;
37517;SDS011;23366;52.498;13.446;2022-12-07T09:40:44;10.35;;;2.90;;
37517;SDS011;23366;52.498;13.446;2022-12-07T09:43:12;3.50;;;2.53;;
37517;SDS011;23366;52.498;13.446;2022-12-07T09:45:38;5.80;;;2.60;;
37517;SDS011;23366;52.498;13.446;2022-12-07T09:48:04;8.70;;;3.17;;
37517;SDS011;23366;52.498;13.446;2022-12-07T09:50:33;4.93;;;3.30;;
37517;SDS011;23366;52.498;13.446;2022-12-07T09:53:08;7.13;;;2.13;;
37517;SDS011;23366;52.498;13.446;2022-12-07T09:55:52;4.78;;;2.03;;
37517;SDS011;23366;52.498;13.446;2022-12-07T09:58:23;3.22;;;2.42;;
37517;SDS011;23366;52.498;13.446;2022-12-07T10:01:05;4.85;;;2.55;;
37517;SDS011;23366;52.498;13.446;2022-12-07T10:03:37;7.40;;;2.03;;
37517;SDS011;23366;52.498;13.446;2022-12-07T10:06:05;3.78;;;1.45;;
37517;SDS011;23366;52.498;13.446;2022-12-07T10:08:31;2.70;;;1.63;;
37517;SDS011;23366;52.498;13.446;2022-12-07T10:10:58;5.90;;;2.17;;
37517;SDS011;23366;52.498;13.446;2022-12-07T10:13:39;6.05;;;2.10;;
37517;SDS011;23366;52.498;13.446;2022-12-07T10:16:27;4.13;;;2.00;;
37517;SDS011;23366;52.498;13.446;2022-12-07T10:18:57;3.35;;;2.00;;
37517;SDS011;23366;52.498;13.446;2022-12-07T10:21:41;2.58;;;2.25;;
37517;SDS011;23366;52.498;13.446;2022-12-07T10:24:29;2.88;;;2.22;;
37517;SDS011;23366;52.498;13.446;2022-12-07T10:26:54;5.68;;;2.78;;
37517;SDS011;23366;52.498;13.446;2022-12-07T10:29:21;4.85;;;2.22;;
37517;SDS011;23366;52.498;13.446;2022-12-07T10:32:27;3.17;;;2.00;;
37517;SDS011;23366;52.498;13.446;2022-12-07T10:34:40;5.43;;;3.20;;
37517;SDS011;23366;52.498;13.446;2022-12-07T10:37:11;4.15;;;3.15;;
37517;SDS011;23366;52.498;13.446;2022-12-07T10:39:41;7.63;;;2.67;;
37517;SDS011;23366;52.498;13.446;2022-12-07T10:45:06;5.68;;;2.88;;
37517;SDS011;23366;52.498;13.446;2022-12-07T10:53:14;5.22;;;2.28;;
37517;SDS011;23366;52.498;13.446;2022-12-07T10:58:43;3.85;;;2.55;;
37517;SDS011;23366;52.498;13.446;2022-12-07T11:01:38;5.43;;;3.42;;
37517;SDS011;23366;52.498;13.446;2022-12-07T11:04:33;13.27;;;2.85;;
37517;SDS011;23366;52.498;13.446;2022-12-07T11:16:16;6.32;;;3.58;;
37517;SDS011;23366;52.498;13.446;2022-12-07T11:21:48;4.80;;;2.83;;
37517;SDS011;23366;52.498;13.446;2022-12-07T11:24:48;8.95;;;4.63;;
37517;SDS011;23366;52.498;13.446;2022-12-07T11:27:27;5.25;;;3.65;;
37517;SDS011;23366;52.498;13.446;2022-12-07T11:30:16;7.18;;;3.47;;
37517;SDS011;23366;52.498;13.446;2022-12-07T11:38:13;5.97;;;4.38;;
37517;SDS011;23366;52.498;13.446;2022-12-07T11:40:43;6.80;;;3.47;;
37517;SDS011;23366;52.498;13.446;2022-12-07T11:43:18;3.72;;;2.70;;
37517;SDS011;23366;52.498;13.446;2022-12-07T11:46:29;7.40;;;4.28;;
37517;SDS011;23366;52.498;13.446;2022-12-07T11:48:41;8.65;;;3.67;;
37517;SDS011;23366;52.498;13.446;2022-12-07T11:51:17;5.88;;;3.15;;
37517;SDS011;23366;52.498;13.446;2022-12-07T11:53:46;5.50;;;3.30;;
37517;SDS011;23366;52.498;13.446;2022-12-07T12:04:01;5.80;;;3.03;;
37517;SDS011;23366;52.498;13.446;2022-12-07T12:06:43;3.65;;;3.03;;
37517;SDS011;23366;52.498;13.446;2022-12-07T12:09:21;6.85;;;3.75;;
37517;SDS011;23366;52.498;13.446;2022-12-07T12:14:55;4.18;;;3.33;;
37517;SDS011;23366;52.498;13.446;2022-12-07T12:20:43;12.60;;;3.60;;
37517;SDS011;23366;52.498;13.446;2022-12-07T12:25:55;6.28;;;3.78;;
37517;SDS011;23366;52.498;13.446;2022-12-07T12:31:03;6.13;;;2.90;;
37517;SDS011;23366;52.498;13.446;2022-12-07T12:33:36;3.70;;;2.30;;
37517;SDS011;23366;52.498;13.446;2022-12-07T12:39:08;4.50;;;2.00;;
37517;SDS011;23366;52.498;13.446;2022-12-07T12:51:44;2.88;;;2.15;;
37517;SDS011;23366;52.498;13.446;2022-12-07T12:59:28;4.90;;;2.53;;
37517;SDS011;23366;52.498;13.446;2022-12-07T13:04:55;4.13;;;1.70;;
37517;SDS011;23366;52.498;13.446;2022-12-07T13:15:49;4.95;;;3.40;;
37517;SDS011;23366;52.498;13.446;2022-12-07T13:18:34;3.47;;;1.80;;
37517;SDS011;23366;52.498;13.446;2022-12-07T13:26:14;5.82;;;1.38;;
37517;SDS011;23366;52.498;13.446;2022-12-07T13:34:28;7.88;;;2.38;;
37517;SDS011;23366;52.498;13.446;2022-12-07T13:36:59;7.47;;;3.60;;
37517;SDS011;23366;52.498;13.446;2022-12-07T13:39:26;7.18;;;4.30;;
37517;SDS011;23366;52.498;13.446;2022-12-07T13:41:59;8.68;;;2.08;;
37517;SDS011;23366;52.498;13.446;2022-12-07T13:44:34;4.30;;;2.10;;
37517;SDS011;23366;52.498;13.446;2022-12-07T13:47:20;6.47;;;1.83;;
37517;SDS011;23366;52.498;13.446;2022-12-07T13:49:57;9.15;;;2.65;;
37517;SDS011;23366;52.498;13.446;2022-12-07T13:52:29;7.80;;;2.45;;
37517;SDS011;23366;52.498;13.446;2022-12-07T13:54:57;2.80;;;1.83;;
37517;SDS011;23366;52.498;13.446;2022-12-07T13:57:30;2.30;;;1.95;;
37517;SDS011;23366;52.498;13.446;2022-12-07T13:59:59;5.82;;;2.50;;
37517;SDS011;23366;52.498;13.446;2022-12-07T14:02:26;4.20;;;2.47;;
37517;SDS011;23366;52.498;13.446;2022-12-07T14:07:35;16.35;;;4.25;;
37517;SDS011;23366;52.498;13.446;2022-12-07T14:13:00;15.02;;;5.28;;
37517;SDS011;23366;52.498;13.446;2022-12-07T14:15:28;7.35;;;2.35;;
37517;SDS011;23366;52.498;13.446;2022-12-07T14:17:59;4.80;;;2.05;;
37517;SDS011;23366;52.498;13.446;2022-12-07T14:20:38;2.65;;;1.83;;
37517;SDS011;23366;52.498;13.446;2022-12-07T14:23:19;2.35;;;1.75;;
37517;SDS011;23366;52.498;13.446;2022-12-07T14:25:53;7.05;;;2.33;;
37517;SDS011;23366;52.498;13.446;2022-12-07T14:30:55;6.88;;;1.95;;
37517;SDS011;23366;52.498;13.446;2022-12-07T14:33:21;2.67;;;1.67;;
37517;SDS011;23366;52.498;13.446;2022-12-07T14:35:47;2.60;;;1.52;;
37517;SDS011;23366;52.498;13.446;2022-12-07T14:38:32;3.58;;;1.85;;
37517;SDS011;23366;52.498;13.446;2022-12-07T14:40:59;4.30;;;1.92;;
37517;SDS011;23366;52.498;13.446;2022-12-07T14:43:44;3.58;;;1.92;;
37517;SDS011;23366;52.498;13.446;2022-12-07T14:46:10;4.75;;;1.60;;
37517;SDS011;23366;52.498;13.446;2022-12-07T14:48:35;4.10;;;2.13;;
37517;SDS011;23366;52.498;13.446;2022-12-07T14:51:01;6.00;;;2.35;;
37517;SDS011;23366;52.498;13.446;2022-12-07T14:53:29;2.78;;;1.98;;
37517;SDS011;23366;52.498;13.446;2022-12-07T14:56:00;5.07;;;2.50;;
37517;SDS011;23366;52.498;13.446;2022-12-07T14:58:26;7.57;;;2.92;;
37517;SDS011;23366;52.498;13.446;2022-12-07T15:00:52;12.73;;;2.40;;
37517;SDS011;23366;52.498;13.446;2022-12-07T15:03:18;5.85;;;2.38;;
37517;SDS011;23366;52.498;13.446;2022-12-07T15:05:43;3.25;;;1.38;;
37517;SDS011;23366;52.498;13.446;2022-12-07T15:08:10;2.58;;;1.52;;
37517;SDS011;23366;52.498;13.446;2022-12-07T15:10:40;9.23;;;2.77;;
37517;SDS011;23366;52.498;13.446;2022-12-07T15:13:06;5.13;;;2.03;;
37517;SDS011;23366;52.498;13.446;2022-12-07T15:15:54;3.20;;;2.05;;
37517;SDS011;23366;52.498;13.446;2022-12-07T15:18:20;2.90;;;2.20;;
37517;SDS011;23366;52.498;13.446;2022-12-07T15:20:47;2.60;;;1.83;;
37517;SDS011;23366;52.498;13.446;2022-12-07T15:23:13;8.63;;;2.17;;
37517;SDS011;23366;52.498;13.446;2022-12-07T15:25:48;5.70;;;2.83;;
37517;SDS011;23366;52.498;13.446;2022-12-07T15:28:17;4.82;;;2.08;;
37517;SDS011;23366;52.498;13.446;2022-12-07T15:30:45;4.43;;;2.13;;
37517;SDS011;23366;52.498;13.446;2022-12-07T15:33:11;6.45;;;2.13;;
37517;SDS011;23366;52.498;13.446;2022-12-07T15:38:31;2.83;;;2.00;;
37517;SDS011;23366;52.498;13.446;2022-12-07T15:40:57;5.28;;;2.45;;
37517;SDS011;23366;52.498;13.446;2022-12-07T15:43:22;2.22;;;1.88;;
37517;SDS011;23366;52.498;13.446;2022-12-07T15:46:09;4.63;;;2.05;;
37517;SDS011;23366;52.498;13.446;2022-12-07T15:48:34;3.08;;;2.33;;
37517;SDS011;23366;52.498;13.446;2022-12-07T15:51:04;7.95;;;4.43;;
37517;SDS011;23366;52.498;13.446;2022-12-07T15:53:30;9.65;;;3.45;;
37517;SDS011;23366;52.498;13.446;2022-12-07T15:55:56;5.30;;;2.40;;
37517;SDS011;23366;52.498;13.446;2022-12-07T15:58:21;3.08;;;2.47;;
37517;SDS011;23366;52.498;13.446;2022-12-07T16:00:47;5.60;;;3.67;;
37517;SDS011;23366;52.498;13.446;2022-12-07T16:03:13;4.32;;;2.55;;
37517;SDS011;23366;52.498;13.446;2022-12-07T16:05:39;4.15;;;2.33;;
37517;SDS011;23366;52.498;13.446;2022-12-07T16:08:04;4.65;;;2.42;;
37517;SDS011;23366;52.498;13.446;2022-12-07T16:10:30;7.20;;;4.28;;
37517;SDS011;23366;52.498;13.446;2022-12-07T16:12:55;6.65;;;2.90;;
37517;SDS011;23366;52.498;13.446;2022-12-07T16:15:21;7.82;;;2.17;;
37517;SDS011;23366;52.498;13.446;2022-12-07T16:17:49;2.38;;;1.60;;
37517;SDS011;23366;52.498;13.446;2022-12-07T16:20:15;4.80;;;1.67;;
37517;SDS011;23366;52.498;13.446;2022-12-07T16:22:41;5.70;;;1.48;;
37517;SDS011;23366;52.498;13.446;2022-12-07T16:25:06;2.60;;;1.92;;
37517;SDS011;23366;52.498;13.446;2022-12-07T16:27:32;3.30;;;1.50;;
37517;SDS011;23366;52.498;13.446;2022-12-07T16:29:59;11.02;;;2.53;;
37517;SDS011;23366;52.498;13.446;2022-12-07T16:32:24;2.97;;;1.20;;
37517;SDS011;23366;52.498;13.446;2022-12-07T16:34:50;3.55;;;2.05;;
37517;SDS011;23366;52.498;13.446;2022-12-07T16:37:15;9.02;;;2.13;;
37517;SDS011;23366;52.498;13.446;2022-12-07T16:39:48;6.97;;;2.67;;
37517;SDS011;23366;52.498;13.446;2022-12-07T16:42:14;6.80;;;2.42;;
37517;SDS011;23366;52.498;13.446;2022-12-07T16:44:39;4.68;;;2.53;;
37517;SDS011;23366;52.498;13.446;2022-12-07T16:47:06;6.75;;;2.40;;
37517;SDS011;23366;52.498;13.446;2022-12-07T16:49:32;7.68;;;2.58;;
37517;SDS011;23366;52.498;13.446;2022-12-07T16:51:57;6.82;;;2.25;;
37517;SDS011;23366;52.498;13.446;2022-12-07T16:54:23;3.10;;;2.67;;
37517;SDS011;23366;52.498;13.446;2022-12-07T16:56:48;6.25;;;2.95;;